createdAt,value
2023-07-31T00:00:07.280Z,94315.34
2023-07-31T00:02:34.243Z,94314.53
2023-07-31T00:05:01.828Z,94310.56
2023-07-31T00:07:28.808Z,94303.44
2023-07-31T00:09:57.761Z,94304.38
2023-07-31T00:12:24.843Z,94307.34
2023-07-31T00:14:51.894Z,94303.16
2023-07-31T00:17:19.237Z,94298.09
2023-07-31T00:19:47.486Z,94299.13
2023-07-31T00:22:14.412Z,94302.97
2023-07-31T00:24:41.403Z,94290.19
2023-07-31T00:27:08.403Z,94282.16
2023-07-31T00:29:35.415Z,94278.59
2023-07-31T00:32:02.292Z,94279.97
2023-07-31T00:34:29.247Z,94273.88
2023-07-31T00:36:56.599Z,94258.66
2023-07-31T00:39:23.604Z,94262.41
2023-07-31T00:41:50.623Z,94269.66
2023-07-31T00:44:18.277Z,94271.91
2023-07-31T00:46:45.568Z,94272.91
2023-07-31T00:49:13.233Z,94269.22
2023-07-31T00:51:40.346Z,94271.75
2023-07-31T00:54:08.155Z,94266.53
2023-07-31T00:56:35.397Z,94265.34
2023-07-31T00:59:02.467Z,94264.34
2023-07-31T01:01:29.441Z,94265.97
2023-07-31T01:04:03.004Z,94258.19
2023-07-31T01:06:41.644Z,94263.50
2023-07-31T01:09:50.791Z,94268.25
2023-07-31T01:12:18.756Z,94257.97
2023-07-31T01:15:12.396Z,94253.28
2023-07-31T01:17:40.316Z,94248.69
2023-07-31T01:20:29.858Z,94255.28
2023-07-31T01:23:49.977Z,94249.38
2023-07-31T01:26:29.133Z,94257.41
2023-07-31T01:29:11.525Z,94258.44
2023-07-31T01:31:40.916Z,94248.72
2023-07-31T01:34:10.158Z,94257.56
2023-07-31T01:36:37.552Z,94243.81
2023-07-31T01:39:05.232Z,94253.16
2023-07-31T01:41:32.214Z,94252.16
2023-07-31T01:43:59.169Z,94254.63
2023-07-31T01:46:26.143Z,94244.66
2023-07-31T01:48:53.144Z,94243.44
2023-07-31T01:51:20.264Z,94255.94
2023-07-31T01:53:47.234Z,94259.72
2023-07-31T01:56:14.259Z,94266.44
2023-07-31T01:58:41.247Z,94266.53
2023-07-31T02:01:08.271Z,94257.91
2023-07-31T02:03:35.386Z,94261.88
2023-07-31T02:06:02.576Z,94260.50
2023-07-31T02:08:29.514Z,94263.53
2023-07-31T02:10:56.456Z,94265.78
2023-07-31T02:13:23.833Z,94267.31
2023-07-31T02:15:51.856Z,94261.16
2023-07-31T02:18:18.982Z,94261.53
2023-07-31T02:20:53.044Z,94265.59
2023-07-31T02:23:21.007Z,94260.31
2023-07-31T02:25:48.129Z,94262.63
2023-07-31T02:28:15.750Z,94267.47
2023-07-31T02:30:46.150Z,94263.63
2023-07-31T02:33:13.191Z,94261.03
2023-07-31T02:35:40.206Z,94265.75
2023-07-31T02:38:07.148Z,94257.97
2023-07-31T02:40:34.083Z,94264.28
2023-07-31T02:43:01.123Z,94267.69
2023-07-31T02:45:28.062Z,94275.94
2023-07-31T02:47:55.089Z,94271.66
2023-07-31T02:50:22.113Z,94269.44
2023-07-31T02:52:49.169Z,94280.31
2023-07-31T02:55:16.384Z,94277.88
2023-07-31T02:57:43.352Z,94281.06
2023-07-31T03:00:10.813Z,94285.28
2023-07-31T03:02:37.910Z,94285.50
2023-07-31T03:05:05.288Z,94292.09
2023-07-31T03:07:32.285Z,94291.78
2023-07-31T03:09:59.221Z,94291.03
2023-07-31T03:12:26.200Z,94291.00
2023-07-31T03:14:53.213Z,94298.88
2023-07-31T03:17:20.138Z,94289.88
2023-07-31T03:19:47.201Z,94293.34
2023-07-31T03:22:14.261Z,94298.00
2023-07-31T03:24:41.182Z,94295.03
2023-07-31T03:27:08.325Z,94308.50
2023-07-31T03:29:35.237Z,94301.16
2023-07-31T03:32:02.321Z,94301.53
2023-07-31T03:34:29.254Z,94306.72
2023-07-31T03:36:56.207Z,94309.66
2023-07-31T03:39:23.168Z,94316.53
2023-07-31T03:41:51.241Z,94323.69
2023-07-31T03:44:18.505Z,94323.75
2023-07-31T03:46:46.249Z,94324.44
2023-07-31T03:49:13.298Z,94326.63
2023-07-31T03:51:40.334Z,94324.44
2023-07-31T03:54:08.913Z,94326.47
2023-07-31T03:56:36.536Z,94329.53
2023-07-31T03:59:03.593Z,94333.69
2023-07-31T04:01:30.696Z,94339.09
2023-07-31T04:03:57.702Z,94331.28
2023-07-31T04:06:24.987Z,94332.22
2023-07-31T04:08:51.941Z,94346.91
2023-07-31T04:11:19.049Z,94338.22
2023-07-31T04:13:46.068Z,94332.28
2023-07-31T04:16:13.087Z,94339.25
2023-07-31T04:18:40.177Z,94332.94
2023-07-31T04:21:07.080Z,94339.31
2023-07-31T04:23:34.070Z,94338.09
2023-07-31T04:26:01.080Z,94344.88
2023-07-31T04:28:28.181Z,94344.38
2023-07-31T04:30:55.203Z,94352.03
2023-07-31T04:33:22.256Z,94348.13
2023-07-31T04:35:55.486Z,94339.59
2023-07-31T04:38:23.068Z,94342.75
2023-07-31T04:40:50.323Z,94334.28
2023-07-31T04:43:17.290Z,94335.44
2023-07-31T04:45:48.904Z,94335.00
2023-07-31T04:48:16.259Z,94331.97
2023-07-31T04:50:43.487Z,94346.94
2023-07-31T04:53:10.492Z,94335.47
2023-07-31T04:55:37.480Z,94329.53
2023-07-31T04:58:04.681Z,94340.63
2023-07-31T05:00:31.817Z,94332.03
2023-07-31T05:02:59.062Z,94331.72
2023-07-31T05:05:26.234Z,94331.34
2023-07-31T05:07:54.101Z,94333.38
2023-07-31T05:10:21.300Z,94337.50
2023-07-31T05:12:48.388Z,94338.91
2023-07-31T05:15:15.457Z,94332.97
2023-07-31T05:17:43.970Z,94334.50
2023-07-31T05:20:11.915Z,94334.25
2023-07-31T05:22:39.157Z,94345.25
2023-07-31T05:25:09.524Z,94339.88
2023-07-31T05:27:36.682Z,94335.19
2023-07-31T05:30:04.210Z,94338.47
2023-07-31T05:32:31.463Z,94338.16
2023-07-31T05:34:58.834Z,94335.44
2023-07-31T05:37:25.821Z,94336.28
2023-07-31T05:39:57.242Z,94328.44
2023-07-31T05:42:24.461Z,94339.03
2023-07-31T05:44:51.551Z,94343.47
2023-07-31T05:47:18.542Z,94333.34
2023-07-31T05:49:45.703Z,94336.56
2023-07-31T05:52:13.063Z,94326.00
2023-07-31T05:54:40.134Z,94361.59
2023-07-31T05:57:07.780Z,94344.28
2023-07-31T05:59:35.022Z,94350.53
2023-07-31T06:02:02.106Z,94346.69
2023-07-31T06:04:29.480Z,94344.81
2023-07-31T06:06:57.728Z,94361.38
2023-07-31T06:09:25.024Z,94354.72
2023-07-31T06:11:52.289Z,94366.09
2023-07-31T06:14:19.223Z,94368.81
2023-07-31T06:16:48.964Z,94361.72
2023-07-31T06:19:16.380Z,94355.41
2023-07-31T06:21:45.235Z,94362.16
2023-07-31T06:24:15.735Z,94361.78
2023-07-31T06:26:43.079Z,94362.59
2023-07-31T06:29:11.470Z,94367.19
2023-07-31T06:31:38.631Z,94368.06
2023-07-31T06:36:33.185Z,94366.69
2023-07-31T06:39:00.311Z,94372.69
2023-07-31T06:41:27.256Z,94363.97
2023-07-31T06:43:54.608Z,94371.75
2023-07-31T06:46:21.668Z,94366.22
2023-07-31T06:48:48.716Z,94365.56
2023-07-31T06:51:15.707Z,94371.06
2023-07-31T06:53:42.842Z,94380.44
2023-07-31T06:56:09.807Z,94361.66
2023-07-31T06:58:38.198Z,94364.94
2023-07-31T07:01:05.372Z,94356.44
2023-07-31T07:03:32.540Z,94369.06
2023-07-31T07:05:59.501Z,94371.41
2023-07-31T07:08:27.640Z,94365.16
2023-07-31T07:10:55.251Z,94349.50
2023-07-31T07:13:23.056Z,94338.53
2023-07-31T07:15:50.817Z,94346.28
2023-07-31T07:18:18.404Z,94347.47
2023-07-31T07:20:52.700Z,94349.56
2023-07-31T07:23:22.056Z,94343.31
2023-07-31T07:25:49.193Z,94343.31
2023-07-31T07:28:17.613Z,94332.66
2023-07-31T07:30:44.817Z,94348.78
2023-07-31T07:33:12.930Z,94354.38
2023-07-31T07:35:40.043Z,94346.53
2023-07-31T07:38:07.218Z,94348.91
2023-07-31T07:40:34.289Z,94357.19
2023-07-31T07:43:01.647Z,94344.19
2023-07-31T07:45:28.944Z,94362.19
2023-07-31T07:47:56.039Z,94352.44
2023-07-31T07:50:23.248Z,94357.59
2023-07-31T07:52:50.682Z,94348.59
2023-07-31T07:55:17.915Z,94365.47
2023-07-31T07:57:46.555Z,94372.16
2023-07-31T08:00:14.672Z,94357.63
2023-07-31T08:02:41.816Z,94358.84
2023-07-31T08:05:09.852Z,94360.78
2023-07-31T08:07:36.877Z,94358.06
2023-07-31T08:10:04.401Z,94356.16
2023-07-31T08:12:31.769Z,94355.38
2023-07-31T08:14:58.784Z,94358.06
2023-07-31T08:17:25.842Z,94367.13
2023-07-31T08:19:53.083Z,94353.78
2023-07-31T08:22:20.213Z,94377.34
2023-07-31T08:24:48.439Z,94364.72
2023-07-31T08:27:15.350Z,94363.50
2023-07-31T08:29:42.556Z,94353.66
2023-07-31T08:32:09.541Z,94359.91
2023-07-31T08:34:36.832Z,94359.13
2023-07-31T08:37:04.122Z,94352.81
2023-07-31T08:39:31.661Z,94363.06
2023-07-31T08:42:01.232Z,94363.88
2023-07-31T08:44:28.977Z,94362.34
2023-07-31T08:46:56.676Z,94350.41
2023-07-31T08:49:24.713Z,94359.00
2023-07-31T08:51:57.131Z,94367.97
2023-07-31T08:54:24.201Z,94362.78
2023-07-31T08:56:54.314Z,94357.25
2023-07-31T08:59:23.512Z,94348.88
2023-07-31T09:01:53.316Z,94357.06
2023-07-31T09:04:24.202Z,94358.31
2023-07-31T09:06:58.238Z,94346.97
2023-07-31T09:09:25.524Z,94354.63
2023-07-31T09:11:53.429Z,94347.66
2023-07-31T09:14:21.004Z,94364.06
2023-07-31T09:16:59.904Z,94336.78
2023-07-31T09:19:40.595Z,94339.28
2023-07-31T09:22:07.896Z,94338.22
2023-07-31T09:24:35.777Z,94333.94
2023-07-31T09:27:03.777Z,94329.00
2023-07-31T09:29:31.322Z,94340.81
2023-07-31T09:31:59.590Z,94345.16
2023-07-31T09:34:41.878Z,94324.78
2023-07-31T09:37:09.588Z,94328.91
2023-07-31T09:39:48.269Z,94326.97
2023-07-31T09:42:15.750Z,94323.84
2023-07-31T09:44:43.519Z,94327.63
2023-07-31T09:47:34.962Z,94327.19
2023-07-31T09:50:02.049Z,94342.09
2023-07-31T09:52:29.024Z,94338.25
2023-07-31T09:54:56.111Z,94322.19
2023-07-31T09:57:24.213Z,94316.50
2023-07-31T09:59:54.138Z,94323.41
2023-07-31T10:02:24.673Z,94327.13
2023-07-31T10:04:53.024Z,94316.66
2023-07-31T10:07:24.759Z,94309.63
2023-07-31T10:09:54.865Z,94304.50
2023-07-31T10:12:24.460Z,94319.50
2023-07-31T10:14:55.248Z,94325.81
2023-07-31T10:17:27.429Z,94318.78
2023-07-31T10:19:54.918Z,94318.59
2023-07-31T10:22:22.671Z,94309.91
2023-07-31T10:24:51.542Z,94307.38
2023-07-31T10:27:18.678Z,94313.22
2023-07-31T10:29:49.292Z,94324.22
2023-07-31T10:32:18.904Z,94313.84
2023-07-31T10:34:47.332Z,94312.59
2023-07-31T10:37:44.968Z,94298.72
2023-07-31T10:40:18.595Z,94303.56
2023-07-31T10:42:54.157Z,94291.34
2023-07-31T10:45:34.036Z,94295.91
2023-07-31T10:48:03.428Z,94290.13
2023-07-31T10:50:34.306Z,94289.88
2023-07-31T10:53:02.757Z,94297.84
2023-07-31T10:55:49.535Z,94297.00
2023-07-31T10:58:20.579Z,94293.16
2023-07-31T11:00:48.408Z,94286.66
2023-07-31T11:03:18.424Z,94292.91
2023-07-31T11:06:07.127Z,94293.78
2023-07-31T11:08:35.802Z,94282.47
2023-07-31T11:11:08.469Z,94290.56
2023-07-31T11:13:42.454Z,94290.13
2023-07-31T11:16:10.703Z,94271.00
2023-07-31T11:18:41.755Z,94278.13
2023-07-31T11:21:09.843Z,94276.00
2023-07-31T11:23:38.452Z,94282.53
2023-07-31T11:26:07.215Z,94289.53
2023-07-31T11:28:35.539Z,94289.03
2023-07-31T11:31:06.014Z,94297.63
2023-07-31T11:33:33.232Z,94276.75
2023-07-31T11:36:00.278Z,94279.31
2023-07-31T11:38:30.090Z,94290.91
2023-07-31T11:40:58.922Z,94282.63
2023-07-31T11:43:28.028Z,94266.09
2023-07-31T11:46:05.545Z,94289.31
2023-07-31T11:48:34.976Z,94274.22
2023-07-31T11:51:06.896Z,94263.97
2023-07-31T11:53:42.435Z,94268.22
2023-07-31T11:56:12.725Z,94270.63
2023-07-31T11:58:40.954Z,94271.44
2023-07-31T12:01:08.781Z,94268.41
2023-07-31T12:03:36.736Z,94261.97
2023-07-31T12:06:04.255Z,94259.03
2023-07-31T12:08:31.204Z,94241.63
2023-07-31T12:11:05.444Z,94249.78
2023-07-31T12:13:34.198Z,94237.13
2023-07-31T12:16:04.605Z,94242.09
2023-07-31T12:18:37.099Z,94248.31
2023-07-31T12:21:07.114Z,94237.34
2023-07-31T12:23:36.188Z,94225.41
2023-07-31T12:26:25.974Z,94232.53
2023-07-31T12:28:55.884Z,94230.50
2023-07-31T12:31:23.894Z,94237.75
2023-07-31T12:33:52.561Z,94233.31
2023-07-31T12:36:24.752Z,94239.69
2023-07-31T12:38:52.965Z,94245.88
2023-07-31T12:41:20.757Z,94238.13
2023-07-31T12:43:49.662Z,94238.19
2023-07-31T12:46:18.332Z,94235.00
2023-07-31T12:48:45.475Z,94237.00
2023-07-31T12:51:12.777Z,94234.22
2023-07-31T12:53:39.935Z,94224.84
2023-07-31T12:56:07.083Z,94219.72
2023-07-31T12:58:34.066Z,94215.84
2023-07-31T13:01:01.139Z,94217.25
2023-07-31T13:03:28.308Z,94209.84
2023-07-31T13:05:55.931Z,94212.03
2023-07-31T13:08:22.922Z,94217.53
2023-07-31T13:10:50.032Z,94216.53
2023-07-31T13:13:17.368Z,94215.19
2023-07-31T13:15:45.346Z,94215.56
2023-07-31T13:18:12.360Z,94217.31
2023-07-31T13:20:39.372Z,94214.69
2023-07-31T13:23:06.477Z,94213.25
2023-07-31T13:25:33.482Z,94205.31
2023-07-31T13:28:03.049Z,94205.09
2023-07-31T13:30:30.827Z,94211.41
2023-07-31T13:32:58.015Z,94204.28
2023-07-31T13:35:25.040Z,94205.09
2023-07-31T13:37:52.039Z,94208.78
2023-07-31T13:40:19.202Z,94196.34
2023-07-31T13:42:48.164Z,94206.22
2023-07-31T13:45:15.236Z,94193.28
2023-07-31T13:47:42.554Z,94195.22
2023-07-31T13:50:10.529Z,94200.84
2023-07-31T13:52:37.711Z,94205.34
2023-07-31T13:55:05.058Z,94201.44
2023-07-31T13:57:39.312Z,94211.00
2023-07-31T14:00:09.998Z,94212.69
2023-07-31T14:02:37.062Z,94211.81
2023-07-31T14:05:04.403Z,94209.13
2023-07-31T14:07:33.518Z,94204.53
2023-07-31T14:10:00.781Z,94209.81
2023-07-31T14:12:41.535Z,94202.56
2023-07-31T14:15:09.725Z,94203.75
2023-07-31T14:17:37.057Z,94209.31
2023-07-31T14:20:05.238Z,94201.78
2023-07-31T14:22:34.589Z,94196.88
2023-07-31T14:25:02.253Z,94209.13
2023-07-31T14:27:29.304Z,94194.44
2023-07-31T14:29:56.365Z,94195.94
2023-07-31T14:32:27.058Z,94201.38
2023-07-31T14:34:54.202Z,94197.53
2023-07-31T14:37:21.155Z,94186.22
2023-07-31T14:39:48.181Z,94192.16
2023-07-31T14:42:15.198Z,94182.84
2023-07-31T14:44:42.116Z,94189.22
2023-07-31T14:47:09.172Z,94181.22
2023-07-31T14:49:36.674Z,94194.13
2023-07-31T14:52:03.906Z,94195.28
2023-07-31T14:54:30.978Z,94187.34
2023-07-31T14:56:58.102Z,94183.44
2023-07-31T14:59:25.081Z,94205.94
2023-07-31T15:01:52.230Z,94192.66
2023-07-31T15:04:19.243Z,94201.16
2023-07-31T15:06:46.312Z,94194.31
2023-07-31T15:09:13.265Z,94211.38
2023-07-31T15:11:40.407Z,94203.00
2023-07-31T15:14:07.613Z,94213.66
2023-07-31T15:16:35.295Z,94210.44
2023-07-31T15:19:02.443Z,94201.28
2023-07-31T15:21:29.646Z,94203.72
2023-07-31T15:23:57.166Z,94219.88
2023-07-31T15:26:24.302Z,94221.19
2023-07-31T15:28:57.776Z,94223.34
2023-07-31T15:31:25.227Z,94221.97
2023-07-31T15:33:52.481Z,94222.34
2023-07-31T15:36:19.565Z,94217.91
2023-07-31T15:38:47.498Z,94236.19
2023-07-31T15:41:14.735Z,94218.84
2023-07-31T15:43:41.849Z,94220.53
2023-07-31T15:46:09.105Z,94220.63
2023-07-31T15:48:36.164Z,94220.63
2023-07-31T15:51:04.465Z,94220.69
2023-07-31T15:53:32.324Z,94226.22
2023-07-31T15:55:59.353Z,94232.16
2023-07-31T15:58:26.524Z,94224.59
2023-07-31T16:00:54.496Z,94227.16
2023-07-31T16:03:22.869Z,94242.03
2023-07-31T16:05:50.072Z,94234.59
2023-07-31T16:08:17.332Z,94235.22
2023-07-31T16:10:44.341Z,94223.16
2023-07-31T16:13:11.471Z,94224.78
2023-07-31T16:15:38.499Z,94228.25
2023-07-31T16:18:05.779Z,94230.22
2023-07-31T16:20:33.270Z,94221.91
2023-07-31T16:23:00.308Z,94226.75
2023-07-31T16:25:27.472Z,94231.72
2023-07-31T16:27:54.627Z,94248.50
2023-07-31T16:30:21.692Z,94228.97
2023-07-31T16:32:50.950Z,94247.78
2023-07-31T16:35:18.292Z,94240.81
2023-07-31T16:37:47.781Z,94241.31
2023-07-31T16:40:17.779Z,94239.38
2023-07-31T16:42:45.070Z,94236.34
2023-07-31T16:45:12.061Z,94239.06
2023-07-31T16:47:39.091Z,94242.50
2023-07-31T16:50:06.701Z,94246.03
2023-07-31T16:52:33.769Z,94243.69
2023-07-31T16:55:00.796Z,94250.88
2023-07-31T16:57:27.832Z,94248.34
2023-07-31T16:59:54.920Z,94246.97
2023-07-31T17:02:22.065Z,94254.72
2023-07-31T17:04:49.402Z,94254.41
2023-07-31T17:07:17.211Z,94255.94
2023-07-31T17:09:44.184Z,94259.09
2023-07-31T17:12:12.203Z,94254.00
2023-07-31T17:14:39.228Z,94253.19
2023-07-31T17:17:07.780Z,94253.66
2023-07-31T17:19:34.880Z,94254.72
2023-07-31T17:22:01.957Z,94268.56
2023-07-31T17:24:28.989Z,94262.25
2023-07-31T17:26:56.067Z,94260.84
2023-07-31T17:29:29.374Z,94275.56
2023-07-31T17:31:56.510Z,94276.88
2023-07-31T17:34:23.597Z,94282.78
2023-07-31T17:36:50.809Z,94286.53
2023-07-31T17:39:17.989Z,94293.28
2023-07-31T17:41:44.982Z,94290.38
2023-07-31T17:44:12.162Z,94286.31
2023-07-31T17:46:39.397Z,94287.72
2023-07-31T17:49:06.946Z,94293.69
2023-07-31T17:51:34.984Z,94294.06
2023-07-31T17:54:02.065Z,94294.50
2023-07-31T17:56:29.833Z,94297.78
2023-07-31T17:58:56.845Z,94295.97
2023-07-31T18:01:24.134Z,94305.88
2023-07-31T18:03:51.331Z,94298.50
2023-07-31T18:06:18.281Z,94298.94
2023-07-31T18:08:45.279Z,94308.75
2023-07-31T18:11:12.385Z,94304.84
2023-07-31T18:13:39.362Z,94301.75
2023-07-31T18:16:06.331Z,94310.84
2023-07-31T18:18:33.517Z,94309.00
2023-07-31T18:21:00.600Z,94313.78
2023-07-31T18:23:27.601Z,94320.16
2023-07-31T18:25:54.535Z,94318.28
2023-07-31T18:28:21.500Z,94321.44
2023-07-31T18:30:48.554Z,94325.22
2023-07-31T18:33:15.558Z,94337.13
2023-07-31T18:35:42.529Z,94335.63
2023-07-31T18:38:09.575Z,94340.38
2023-07-31T18:40:36.532Z,94339.22
2023-07-31T18:43:03.727Z,94346.69
2023-07-31T18:45:30.793Z,94343.16
2023-07-31T18:47:57.952Z,94343.91
2023-07-31T18:50:25.057Z,94347.88
2023-07-31T18:52:52.062Z,94343.16
2023-07-31T18:55:19.124Z,94347.91
2023-07-31T18:57:46.790Z,94343.25
2023-07-31T19:00:14.120Z,94347.63
2023-07-31T19:02:41.831Z,94353.53
2023-07-31T19:05:09.483Z,94352.78
2023-07-31T19:07:36.489Z,94357.13
2023-07-31T19:10:14.211Z,94346.94
2023-07-31T19:12:43.889Z,94353.63
2023-07-31T19:15:11.671Z,94353.28
2023-07-31T19:17:40.046Z,94354.88
2023-07-31T19:20:08.087Z,94359.22
2023-07-31T19:22:35.040Z,94356.88
2023-07-31T19:25:02.160Z,94356.88
2023-07-31T19:27:29.167Z,94362.00
2023-07-31T19:29:56.305Z,94356.13
2023-07-31T19:32:24.296Z,94358.47
2023-07-31T19:34:51.468Z,94359.28
2023-07-31T19:37:18.403Z,94363.59
2023-07-31T19:39:45.345Z,94362.03
2023-07-31T19:42:12.510Z,94353.78
2023-07-31T19:44:39.803Z,94363.22
2023-07-31T19:47:07.103Z,94351.81
2023-07-31T19:49:35.799Z,94357.69
2023-07-31T19:52:02.807Z,94349.81
2023-07-31T19:54:29.816Z,94358.91
2023-07-31T19:56:58.632Z,94364.72
2023-07-31T19:59:26.671Z,94367.47
2023-07-31T20:01:53.735Z,94369.44
2023-07-31T20:04:20.802Z,94368.22
2023-07-31T20:06:47.919Z,94366.25
2023-07-31T20:09:15.052Z,94366.22
2023-07-31T20:11:42.065Z,94373.63
2023-07-31T20:14:11.084Z,94373.59
2023-07-31T20:16:42.160Z,94373.16
2023-07-31T20:19:10.052Z,94370.41
2023-07-31T20:21:40.785Z,94373.50
2023-07-31T20:24:09.338Z,94370.41
2023-07-31T20:26:37.559Z,94364.06
2023-07-31T20:29:04.840Z,94361.72
2023-07-31T20:31:31.895Z,94366.03
2023-07-31T20:33:58.831Z,94359.31
2023-07-31T20:36:26.006Z,94358.88
2023-07-31T20:38:52.974Z,94356.44
2023-07-31T20:41:20.468Z,94359.22
2023-07-31T20:43:47.448Z,94356.34
2023-07-31T20:46:14.641Z,94368.53
2023-07-31T20:48:41.615Z,94376.31
2023-07-31T20:51:09.046Z,94377.44
2023-07-31T20:53:35.991Z,94383.63
2023-07-31T20:56:03.741Z,94382.13
2023-07-31T20:58:30.599Z,94385.38
2023-07-31T21:00:57.628Z,94378.22
2023-07-31T21:03:25.002Z,94380.59
2023-07-31T21:05:54.016Z,94385.44
2023-07-31T21:08:21.379Z,94388.06
2023-07-31T21:10:51.459Z,94384.13
2023-07-31T21:13:19.302Z,94384.13
2023-07-31T21:15:46.422Z,94383.38
2023-07-31T21:18:13.426Z,94375.53
2023-07-31T21:20:40.494Z,94374.41
2023-07-31T21:23:09.342Z,94377.56
2023-07-31T21:25:39.093Z,94374.72
2023-07-31T21:28:06.078Z,94377.78
2023-07-31T21:30:34.397Z,94380.97
2023-07-31T21:33:01.409Z,94379.44
2023-07-31T21:35:28.579Z,94382.22
2023-07-31T21:37:55.860Z,94376.00
2023-07-31T21:40:23.631Z,94376.84
2023-07-31T21:42:51.096Z,94377.63
2023-07-31T21:45:18.918Z,94374.13
2023-07-31T21:47:45.953Z,94376.88
2023-07-31T21:50:13.140Z,94377.28
2023-07-31T21:52:40.632Z,94371.03
2023-07-31T21:55:08.291Z,94373.00
2023-07-31T21:57:36.949Z,94381.22
2023-07-31T22:00:06.212Z,94383.69
2023-07-31T22:02:34.206Z,94386.81
2023-07-31T22:05:01.375Z,94386.94
2023-07-31T22:07:28.309Z,94388.81
2023-07-31T22:09:55.231Z,94389.53
2023-07-31T22:12:22.183Z,94384.84
2023-07-31T22:14:49.216Z,94391.88
2023-07-31T22:17:16.381Z,94396.44
2023-07-31T22:19:43.292Z,94400.25
2023-07-31T22:22:10.308Z,94387.66
2023-07-31T22:24:38.772Z,94387.19
2023-07-31T22:27:06.317Z,94382.50
2023-07-31T22:29:33.307Z,94378.63
2023-07-31T22:32:00.216Z,94383.34
2023-07-31T22:34:27.182Z,94381.38
2023-07-31T22:36:54.151Z,94387.25
2023-07-31T22:39:21.072Z,94384.66
2023-07-31T22:41:48.019Z,94387.63
2023-07-31T22:44:14.996Z,94383.56
2023-07-31T22:46:43.387Z,94377.28
2023-07-31T22:49:10.710Z,94390.19
2023-07-31T22:51:37.857Z,94374.09
2023-07-31T22:54:04.842Z,94372.56
2023-07-31T22:56:31.820Z,94372.16
2023-07-31T22:58:59.414Z,94375.59
2023-07-31T23:01:28.976Z,94369.28
2023-07-31T23:03:56.924Z,94366.94
2023-07-31T23:06:25.072Z,94362.75
2023-07-31T23:08:52.176Z,94349.13
2023-07-31T23:11:19.290Z,94350.09
2023-07-31T23:13:46.507Z,94345.78
2023-07-31T23:16:14.526Z,94345.72
2023-07-31T23:18:42.236Z,94348.88
2023-07-31T23:21:09.575Z,94343.41
2023-07-31T23:23:36.630Z,94348.47
2023-07-31T23:26:03.832Z,94346.44
2023-07-31T23:28:30.817Z,94351.09
2023-07-31T23:31:04.952Z,94340.50
2023-07-31T23:33:32.719Z,94347.13
2023-07-31T23:36:08.690Z,94335.78
2023-07-31T23:38:35.616Z,94329.91
2023-07-31T23:41:02.650Z,94330.53
2023-07-31T23:43:29.589Z,94330.53
2023-07-31T23:45:56.610Z,94324.25
2023-07-31T23:48:23.635Z,94322.34
2023-07-31T23:50:51.004Z,94329.72
2023-07-31T23:53:18.415Z,94319.59
2023-07-31T23:55:45.684Z,94316.59
2023-07-31T23:58:14.968Z,94316.59
